createdAt,value
2019-02-25T00:03:32.644Z,66.90
2019-02-25T00:08:44.318Z,67.70
2019-02-25T00:13:56.170Z,67.10
2019-02-25T00:19:08.522Z,67.00
2019-02-25T00:24:20.118Z,66.30
2019-02-25T00:29:31.504Z,66.60
2019-02-25T00:34:42.698Z,66.40
2019-02-25T00:39:54.734Z,66.40
2019-02-25T00:45:06.306Z,67.00
2019-02-25T00:50:18.323Z,66.60
2019-02-25T00:55:30.872Z,67.00
2019-02-25T01:00:30.608Z,66.90
2019-02-25T01:05:49.671Z,67.30
2019-02-25T01:11:01.504Z,67.20
2019-02-25T01:16:12.976Z,67.10
2019-02-25T01:21:24.243Z,67.20
2019-02-25T01:26:36.150Z,67.00
2019-02-25T01:31:46.134Z,67.00
2019-02-25T01:36:57.630Z,67.10
2019-02-25T01:42:09.367Z,67.20
2019-02-25T01:47:21.446Z,66.80
2019-02-25T01:52:33.306Z,66.90
2019-02-25T01:57:43.328Z,67.00
2019-02-25T02:02:55.458Z,67.30
2019-02-25T02:08:07.470Z,66.80
2019-02-25T02:13:19.434Z,66.90
2019-02-25T02:18:31.442Z,67.00
2019-02-25T02:23:42.743Z,66.80
2019-02-25T02:28:54.804Z,66.80
2019-02-25T02:34:06.207Z,66.80
2019-02-25T02:39:17.694Z,67.20
2019-02-25T02:44:28.947Z,66.90
2019-02-25T02:49:41.020Z,67.60
2019-02-25T02:54:53.142Z,67.00
2019-02-25T03:00:04.743Z,66.80
2019-02-25T03:05:18.233Z,67.50
2019-02-25T03:10:30.052Z,67.70
2019-02-25T03:15:42.147Z,67.80
2019-02-25T03:20:54.080Z,67.60
2019-02-25T03:26:05.972Z,67.50
2019-02-25T03:31:17.324Z,67.50
2019-02-25T03:36:29.267Z,67.70
2019-02-25T03:41:41.509Z,67.50
2019-02-25T03:46:53.265Z,67.50
2019-02-25T03:52:05.446Z,67.50
2019-02-25T03:57:16.670Z,67.50
2019-02-25T04:02:28.343Z,67.60
2019-02-25T04:07:40.191Z,67.60
2019-02-25T04:12:52.199Z,67.70
2019-02-25T04:18:04.089Z,66.80
2019-02-25T04:23:15.450Z,67.60
2019-02-25T04:28:27.648Z,67.30
2019-02-25T04:33:39.675Z,67.10
2019-02-25T04:38:51.071Z,67.50
2019-02-25T04:44:03.043Z,67.40
2019-02-25T04:49:15.648Z,67.20
2019-02-25T04:54:26.890Z,67.50
2019-02-25T04:59:38.701Z,67.60
2019-02-25T05:04:50.659Z,67.30
2019-02-25T05:10:02.756Z,67.20
2019-02-25T05:15:16.075Z,67.30
2019-02-25T05:20:27.835Z,67.00
2019-02-25T05:25:39.187Z,67.10
2019-02-25T05:30:50.407Z,67.20
2019-02-25T05:36:01.995Z,67.40
2019-02-25T05:41:14.092Z,67.60
2019-02-25T05:46:26.160Z,67.70
2019-02-25T05:51:38.360Z,68.00
2019-02-25T05:56:50.136Z,68.10
2019-02-25T06:02:01.439Z,68.20
2019-02-25T06:07:14.235Z,68.20
2019-02-25T06:12:25.960Z,69.10
2019-02-25T06:17:37.959Z,68.00
2019-02-25T06:22:50.186Z,68.30
2019-02-25T06:28:01.588Z,68.30
2019-02-25T06:33:13.495Z,68.30
2019-02-25T06:38:25.644Z,67.70
2019-02-25T06:43:37.511Z,67.90
2019-02-25T06:48:49.638Z,68.00
2019-02-25T06:54:04.323Z,68.60
2019-02-25T06:59:16.211Z,68.30
2019-02-25T07:04:47.219Z,68.50
2019-02-25T07:10:04.693Z,68.60
2019-02-25T07:15:30.743Z,68.90
2019-02-25T07:20:49.805Z,69.00
2019-02-25T07:26:27.766Z,69.00
2019-02-25T07:31:45.154Z,69.10
2019-02-25T07:37:16.072Z,69.40
2019-02-25T07:42:40.966Z,69.10
2019-02-25T07:47:57.931Z,69.10
2019-02-25T07:53:31.263Z,68.90
2019-02-25T07:58:58.219Z,68.80
2019-02-25T08:04:19.814Z,68.80
2019-02-25T08:09:50.536Z,69.20
2019-02-25T08:15:09.037Z,69.60
2019-02-25T08:20:39.811Z,69.70
2019-02-25T08:26:10.963Z,70.10
2019-02-25T08:31:33.316Z,70.30
2019-02-25T08:37:03.960Z,70.50
2019-02-25T08:42:21.218Z,70.20
2019-02-25T08:47:51.923Z,70.00
2019-02-25T08:53:03.922Z,70.20
2019-02-25T08:58:15.787Z,70.50
2019-02-25T09:03:28.004Z,70.70
2019-02-25T09:08:39.815Z,70.50
2019-02-25T09:13:49.987Z,70.60
2019-02-25T09:19:08.935Z,70.50
2019-02-25T09:24:20.610Z,69.70
2019-02-25T09:29:32.960Z,70.40
2019-02-25T09:34:46.969Z,69.90
2019-02-25T09:39:58.131Z,70.20
2019-02-25T09:45:10.203Z,69.80
2019-02-25T09:50:22.219Z,69.60
2019-02-25T09:55:33.716Z,70.10
2019-02-25T10:00:46.151Z,68.60
2019-02-25T10:05:58.016Z,69.30
2019-02-25T10:11:09.664Z,69.20
2019-02-25T10:16:19.762Z,69.50
2019-02-25T10:21:38.635Z,68.80
2019-02-25T10:26:51.946Z,68.90
2019-02-25T10:32:04.838Z,69.40
2019-02-25T10:37:17.208Z,69.20
2019-02-25T10:42:29.880Z,68.80
2019-02-25T10:47:44.247Z,70.00
2019-02-25T10:53:03.204Z,69.10
2019-02-25T10:58:09.074Z,68.90
2019-02-25T11:03:21.719Z,67.80
2019-02-25T11:08:35.131Z,68.20
2019-02-25T11:13:47.307Z,66.80
2019-02-25T11:19:00.915Z,68.50
2019-02-25T11:24:14.467Z,64.90
2019-02-25T11:29:27.499Z,66.90
2019-02-25T11:34:39.945Z,67.10
2019-02-25T11:39:52.597Z,65.60
2019-02-25T11:45:05.927Z,67.00
2019-02-25T11:50:17.362Z,65.80
2019-02-25T11:55:29.288Z,62.90
2019-02-25T12:00:40.575Z,65.90
2019-02-25T12:05:53.595Z,63.90
2019-02-25T12:11:04.971Z,62.70
2019-02-25T12:16:16.356Z,62.70
2019-02-25T12:21:27.809Z,63.50
2019-02-25T12:26:40.289Z,60.00
2019-02-25T12:31:52.159Z,62.20
2019-02-25T12:37:03.946Z,60.50
2019-02-25T12:42:15.874Z,62.20
2019-02-25T12:47:27.688Z,63.50
2019-02-25T12:52:39.707Z,62.50
2019-02-25T12:57:50.974Z,61.10
2019-02-25T13:03:03.075Z,62.10
2019-02-25T13:08:14.949Z,62.30
2019-02-25T13:13:26.716Z,61.20
2019-02-25T13:18:38.364Z,61.60
2019-02-25T13:23:50.155Z,60.30
2019-02-25T13:29:01.959Z,60.20
2019-02-25T13:34:15.245Z,61.10
2019-02-25T13:39:26.635Z,59.50
2019-02-25T13:44:38.856Z,60.00
2019-02-25T13:49:50.681Z,58.80
2019-02-25T13:55:02.443Z,58.80
2019-02-25T14:00:14.302Z,57.90
2019-02-25T14:05:26.340Z,56.60
2019-02-25T14:10:37.643Z,55.80
2019-02-25T14:15:49.888Z,54.80
2019-02-25T14:21:02.259Z,55.60
2019-02-25T14:26:14.143Z,55.80
2019-02-25T14:31:27.318Z,54.80
2019-02-25T14:36:39.922Z,56.30
2019-02-25T14:41:54.565Z,54.20
2019-02-25T14:47:19.279Z,54.90
2019-02-25T14:52:19.382Z,55.90
2019-02-25T14:57:33.266Z,55.20
2019-02-25T15:02:48.030Z,54.60
2019-02-25T15:07:59.096Z,53.90
2019-02-25T15:13:10.952Z,52.00
2019-02-25T15:18:24.535Z,51.60
2019-02-25T15:23:36.248Z,51.30
2019-02-25T15:28:51.700Z,52.40
2019-02-25T15:34:01.156Z,52.00
2019-02-25T15:39:13.758Z,51.90
2019-02-25T15:44:26.052Z,50.50
2019-02-25T15:49:37.782Z,50.70
2019-02-25T15:54:49.862Z,51.20
2019-02-25T16:00:01.460Z,51.90
2019-02-25T16:05:12.779Z,51.40
2019-02-25T16:10:24.849Z,52.10
2019-02-25T16:15:36.787Z,51.50
2019-02-25T16:20:48.983Z,52.00
2019-02-25T16:26:00.874Z,52.50
2019-02-25T16:31:12.372Z,51.90
2019-02-25T16:36:26.231Z,53.40
2019-02-25T16:41:39.312Z,53.20
2019-02-25T16:46:51.367Z,53.60
2019-02-25T16:52:02.832Z,53.30
2019-02-25T17:00:46.255Z,54.00
2019-02-25T17:05:58.091Z,54.00
2019-02-25T17:11:12.796Z,54.00
2019-02-25T17:16:24.579Z,54.60
2019-02-25T17:21:36.123Z,54.60
2019-02-25T17:26:47.438Z,55.40
2019-02-25T17:32:01.257Z,56.40
2019-02-25T17:37:13.022Z,56.60
2019-02-25T17:42:26.464Z,56.80
2019-02-25T17:47:39.680Z,56.90
2019-02-25T17:52:51.772Z,57.20
2019-02-25T17:58:03.247Z,57.20
2019-02-25T18:03:15.459Z,57.30
2019-02-25T18:08:30.180Z,56.10
2019-02-25T18:13:41.930Z,55.60
2019-02-25T18:18:54.454Z,56.50
2019-02-25T18:24:06.646Z,56.00
2019-02-25T18:29:19.137Z,55.90
2019-02-25T18:34:32.211Z,56.00
2019-02-25T18:44:39.511Z,56.60
2019-02-25T18:49:52.115Z,56.20
2019-02-25T18:55:06.542Z,56.80
2019-02-25T19:00:20.062Z,57.50
2019-02-25T19:05:31.914Z,58.00
2019-02-25T19:10:31.703Z,58.00
2019-02-25T19:15:59.283Z,57.00
2019-02-25T19:21:16.795Z,57.60
2019-02-25T19:26:28.535Z,58.00
2019-02-25T19:31:42.526Z,58.20
2019-02-25T19:36:52.188Z,57.00
2019-02-25T19:42:15.093Z,56.40
2019-02-25T19:47:35.160Z,56.40
2019-02-25T19:52:46.805Z,56.50
2019-02-25T19:57:59.678Z,56.90
2019-02-25T20:03:05.773Z,57.10
2019-02-25T20:08:39.279Z,57.30
2019-02-25T20:13:51.374Z,57.30
2019-02-25T20:19:02.555Z,57.80
2019-02-25T20:24:23.810Z,58.00
2019-02-25T20:29:55.856Z,56.00
2019-02-25T20:35:08.460Z,57.40
2019-02-25T20:40:21.826Z,58.00
2019-02-25T20:45:35.471Z,56.90
2019-02-25T20:50:46.730Z,56.80
2019-02-25T20:55:58.971Z,54.80
2019-02-25T21:00:59.694Z,56.30
2019-02-25T21:05:59.635Z,56.80
2019-02-25T21:11:13.365Z,57.00
2019-02-25T21:16:26.313Z,57.30
2019-02-25T21:21:38.974Z,58.30
2019-02-25T21:26:50.735Z,59.10
2019-02-25T21:32:02.015Z,58.10
2019-02-25T21:37:13.602Z,59.60
2019-02-25T21:42:26.840Z,60.00
2019-02-25T21:47:38.979Z,60.00
2019-02-25T21:52:50.927Z,59.90
2019-02-25T21:58:04.844Z,60.00
2019-02-25T22:03:17.499Z,60.10
2019-02-25T22:08:31.861Z,60.00
2019-02-25T22:13:43.931Z,61.40
2019-02-25T22:18:56.520Z,61.50
2019-02-25T22:24:09.714Z,61.60
2019-02-25T22:29:21.636Z,61.40
2019-02-25T22:34:33.762Z,61.20
2019-02-25T22:39:46.094Z,61.50
2019-02-25T22:44:58.939Z,61.10
2019-02-25T22:50:10.788Z,61.80
2019-02-25T22:55:24.136Z,62.40
2019-02-25T23:00:58.257Z,62.20
2019-02-25T23:06:28.375Z,61.70
2019-02-25T23:11:41.756Z,61.10
2019-02-25T23:16:52.659Z,61.20
2019-02-25T23:22:04.766Z,61.70
2019-02-25T23:27:16.390Z,61.60
2019-02-25T23:32:28.247Z,61.40
2019-02-25T23:37:40.059Z,61.30
2019-02-25T23:42:52.179Z,61.80
2019-02-25T23:48:04.419Z,62.20
2019-02-25T23:53:16.865Z,62.00
2019-02-25T23:58:28.911Z,61.90
